createdAt,value
2022-08-09T00:02:57.498Z,48.95
2022-08-09T00:08:01.478Z,48.84
2022-08-09T00:13:06.591Z,48.95
2022-08-09T00:18:21.475Z,49.21
2022-08-09T00:23:55.965Z,49.20
2022-08-09T00:28:52.312Z,49.04
2022-08-09T00:33:57.032Z,49.27
2022-08-09T00:39:00.865Z,49.92
2022-08-09T00:44:16.492Z,49.46
2022-08-09T00:49:31.098Z,49.84
2022-08-09T00:54:35.389Z,49.74
2022-08-09T00:59:46.243Z,49.82
2022-08-09T01:04:58.257Z,49.99
2022-08-09T01:10:06.061Z,50.01
2022-08-09T01:15:17.060Z,49.81
2022-08-09T01:20:30.180Z,50.28
2022-08-09T01:25:48.907Z,50.03
2022-08-09T01:30:59.077Z,50.44
2022-08-09T01:36:05.136Z,50.16
2022-08-09T01:41:14.237Z,50.32
2022-08-09T01:46:24.921Z,50.11
2022-08-09T01:51:32.592Z,49.97
2022-08-09T01:56:39.664Z,50.12
2022-08-09T02:01:59.942Z,50.33
2022-08-09T02:07:17.779Z,50.42
2022-08-09T02:12:39.735Z,50.16
2022-08-09T02:18:09.491Z,50.29
2022-08-09T02:23:11.423Z,50.01
2022-08-09T02:28:20.056Z,50.11
2022-08-09T02:33:37.691Z,50.41
2022-08-09T02:38:53.681Z,50.60
2022-08-09T02:44:06.634Z,50.46
2022-08-09T02:49:20.177Z,50.19
2022-08-09T02:54:54.159Z,50.40
2022-08-09T03:00:21.023Z,50.69
2022-08-09T03:05:26.567Z,50.74
2022-08-09T03:10:31.286Z,50.70
2022-08-09T03:16:04.775Z,50.60
2022-08-09T03:21:00.505Z,50.33
2022-08-09T03:26:05.307Z,50.59
2022-08-09T03:31:10.010Z,50.67
2022-08-09T03:36:16.262Z,50.69
2022-08-09T03:41:19.633Z,50.75
2022-08-09T03:46:33.441Z,51.02
2022-08-09T03:51:55.661Z,51.30
2022-08-09T03:57:18.483Z,51.46
2022-08-09T04:02:27.374Z,51.34
2022-08-09T04:07:47.183Z,51.59
2022-08-09T04:12:55.808Z,51.54
2022-08-09T04:18:00.452Z,52.07
2022-08-09T04:23:10.060Z,51.66
2022-08-09T04:28:30.537Z,51.79
2022-08-09T04:33:52.380Z,51.97
2022-08-09T04:38:59.593Z,52.84
2022-08-09T04:44:06.398Z,53.38
2022-08-09T04:49:12.128Z,53.14
2022-08-09T04:54:20.037Z,53.16
2022-08-09T04:59:23.344Z,52.58
2022-08-09T05:04:30.671Z,53.14
2022-08-09T05:09:48.777Z,52.98
2022-08-09T05:14:52.715Z,52.91
2022-08-09T05:19:56.824Z,52.86
2022-08-09T05:25:02.676Z,53.60
2022-08-09T05:30:06.580Z,53.23
2022-08-09T05:35:11.277Z,53.29
2022-08-09T05:40:16.387Z,54.11
2022-08-09T05:45:21.266Z,53.50
2022-08-09T05:50:51.388Z,53.28
2022-08-09T05:55:53.134Z,53.71
2022-08-09T06:00:57.006Z,54.30
2022-08-09T06:06:05.849Z,54.18
2022-08-09T06:11:17.445Z,54.52
2022-08-09T06:16:22.483Z,55.22
2022-08-09T06:21:25.232Z,55.43
2022-08-09T06:26:29.834Z,55.78
2022-08-09T06:31:40.515Z,56.04
2022-08-09T06:36:59.671Z,56.27
2022-08-09T06:42:09.409Z,56.79
2022-08-09T06:47:15.305Z,57.86
2022-08-09T06:52:18.135Z,57.70
2022-08-09T06:57:25.804Z,57.63
2022-08-09T07:02:45.917Z,57.15
2022-08-09T07:08:00.389Z,57.28
2022-08-09T07:13:27.486Z,56.62
2022-08-09T07:18:28.882Z,57.36
2022-08-09T07:23:36.044Z,56.46
2022-08-09T07:29:09.187Z,56.75
2022-08-09T07:34:03.376Z,56.47
2022-08-09T07:39:06.191Z,55.73
2022-08-09T07:44:16.348Z,55.22
2022-08-09T07:49:26.839Z,55.46
2022-08-09T07:54:31.646Z,56.27
2022-08-09T07:59:51.972Z,56.68
2022-08-09T08:04:58.821Z,56.23
2022-08-09T08:10:08.934Z,56.24
2022-08-09T08:15:17.580Z,56.09
2022-08-09T08:20:29.370Z,55.55
2022-08-09T08:25:44.016Z,55.61
2022-08-09T08:30:50.009Z,55.47
2022-08-09T08:35:58.617Z,55.21
2022-08-09T08:41:06.273Z,54.21
2022-08-09T08:46:33.624Z,53.62
2022-08-09T08:52:00.533Z,53.19
2022-08-09T08:57:01.662Z,53.90
2022-08-09T09:02:08.424Z,53.46
2022-08-09T09:07:12.531Z,53.59
2022-08-09T09:12:17.171Z,52.38
2022-08-09T09:17:22.035Z,51.79
2022-08-09T09:22:28.741Z,51.74
2022-08-09T09:28:06.344Z,49.40
2022-08-09T09:33:16.440Z,48.72
2022-08-09T09:38:36.425Z,51.19
2022-08-09T09:43:41.327Z,52.67
2022-08-09T09:48:57.340Z,52.04
2022-08-09T09:54:17.887Z,51.25
2022-08-09T09:59:35.828Z,51.74
2022-08-09T10:04:40.729Z,51.27
2022-08-09T10:09:48.698Z,49.55
2022-08-09T10:14:52.979Z,49.08
2022-08-09T10:19:58.710Z,48.77
2022-08-09T10:25:11.319Z,49.67
2022-08-09T10:35:44.377Z,50.00
2022-08-09T10:40:50.213Z,50.05
2022-08-09T10:45:58.457Z,48.78
2022-08-09T10:51:16.566Z,47.93
2022-08-09T10:56:23.660Z,49.45
2022-08-09T11:03:11.318Z,48.55
2022-08-09T11:07:56.872Z,50.30
2022-08-09T11:13:21.683Z,50.20
2022-08-09T11:18:45.778Z,50.20
2022-08-09T11:24:04.069Z,50.21
2022-08-09T11:29:07.226Z,50.10
2022-08-09T11:34:20.730Z,50.47
2022-08-09T11:39:25.185Z,50.43
2022-08-09T11:44:46.973Z,50.60
2022-08-09T11:50:55.068Z,50.37
2022-08-09T11:55:35.143Z,50.80
2022-08-09T12:00:59.874Z,51.28
2022-08-09T12:06:11.588Z,51.26
2022-08-09T12:11:17.594Z,51.48
2022-08-09T12:16:37.623Z,51.43
2022-08-09T12:21:50.771Z,51.11
2022-08-09T12:29:15.613Z,50.80
2022-08-09T12:32:27.417Z,50.75
2022-08-09T12:37:37.844Z,50.50
2022-08-09T12:42:54.970Z,50.08
2022-08-09T12:47:58.051Z,50.19
2022-08-09T12:53:09.505Z,50.07
2022-08-09T12:58:24.065Z,50.05
2022-08-09T13:03:57.358Z,50.35
2022-08-09T13:09:01.469Z,51.80
2022-08-09T13:14:41.401Z,52.35
2022-08-09T13:20:08.708Z,53.51
2022-08-09T13:25:13.668Z,54.31
2022-08-09T13:30:51.378Z,55.00
2022-08-09T13:36:41.769Z,54.18
2022-08-09T13:41:56.384Z,53.98
2022-08-09T13:47:16.226Z,53.77
2022-08-09T13:52:00.897Z,53.80
2022-08-09T13:57:06.424Z,53.87
2022-08-09T14:02:10.895Z,53.72
2022-08-09T14:07:13.788Z,53.54
2022-08-09T14:12:16.836Z,53.50
2022-08-09T14:17:22.726Z,53.57
2022-08-09T14:22:25.730Z,53.55
2022-08-09T14:27:28.748Z,53.76
2022-08-09T14:32:43.664Z,53.54
2022-08-09T14:38:02.056Z,53.63
2022-08-09T14:43:05.950Z,53.58
2022-08-09T14:48:10.134Z,53.49
2022-08-09T14:53:17.456Z,53.42
2022-08-09T14:58:20.188Z,54.10
2022-08-09T15:03:24.312Z,53.88
2022-08-09T15:08:30.450Z,53.95
2022-08-09T15:13:47.834Z,54.25
2022-08-09T15:18:59.659Z,54.35
2022-08-09T15:24:13.926Z,54.05
2022-08-09T15:30:58.706Z,54.41
2022-08-09T15:34:45.979Z,54.42
2022-08-09T15:39:54.818Z,54.51
2022-08-09T15:44:58.415Z,54.33
2022-08-09T15:50:05.582Z,54.54
2022-08-09T15:55:12.424Z,54.92
2022-08-09T16:00:25.346Z,54.91
2022-08-09T16:05:47.193Z,54.82
2022-08-09T16:10:55.444Z,55.01
2022-08-09T16:16:10.400Z,55.37
2022-08-09T16:21:25.197Z,55.56
2022-08-09T16:26:34.180Z,55.79
2022-08-09T16:32:17.754Z,55.58
2022-08-09T16:37:03.190Z,55.64
2022-08-09T16:42:10.619Z,55.67
2022-08-09T16:48:39.807Z,55.46
2022-08-09T16:52:43.055Z,55.48
2022-08-09T16:58:09.887Z,55.42
2022-08-09T17:03:09.062Z,55.23
2022-08-09T17:08:46.753Z,55.28
2022-08-09T17:14:01.048Z,55.19
2022-08-09T17:19:05.394Z,55.11
2022-08-09T17:24:28.215Z,55.03
2022-08-09T17:29:38.097Z,54.96
2022-08-09T17:35:01.541Z,54.79
2022-08-09T17:40:17.038Z,54.77
2022-08-09T17:45:27.219Z,54.63
2022-08-09T17:50:40.628Z,54.45
2022-08-09T17:55:57.614Z,54.49
2022-08-09T18:01:04.057Z,54.62
2022-08-09T18:06:07.579Z,54.66
2022-08-09T18:11:46.883Z,54.65
2022-08-09T18:16:56.343Z,54.69
2022-08-09T18:21:59.159Z,54.57
2022-08-09T18:27:06.725Z,54.70
2022-08-09T18:32:11.611Z,54.33
2022-08-09T18:37:47.921Z,54.11
2022-08-09T18:42:40.086Z,54.13
2022-08-09T18:47:46.753Z,53.71
2022-08-09T18:52:50.761Z,50.27
2022-08-09T18:57:56.487Z,48.84
2022-08-09T19:02:59.374Z,48.67
2022-08-09T19:08:09.723Z,49.04
2022-08-09T19:13:20.852Z,48.61
2022-08-09T19:18:32.915Z,49.34
2022-08-09T19:24:37.396Z,49.27
2022-08-09T19:29:15.699Z,49.57
2022-08-09T19:34:24.748Z,49.65
2022-08-09T19:40:02.518Z,49.15
2022-08-09T19:44:53.725Z,48.99
2022-08-09T19:50:09.609Z,48.63
2022-08-09T19:55:19.725Z,48.35
2022-08-09T20:00:35.290Z,48.74
2022-08-09T20:05:45.983Z,48.78
2022-08-09T20:10:51.593Z,49.50
2022-08-09T20:16:34.004Z,49.24
2022-08-09T20:21:22.097Z,48.96
2022-08-09T20:26:43.301Z,49.04
2022-08-09T20:32:28.524Z,48.94
2022-08-09T20:37:11.133Z,49.00
2022-08-09T20:42:14.172Z,49.15
2022-08-09T20:47:47.817Z,49.29
2022-08-09T20:52:44.824Z,48.99
2022-08-09T20:58:08.128Z,49.40
2022-08-09T21:03:12.494Z,48.95
2022-08-09T21:08:22.356Z,48.45
2022-08-09T21:13:58.079Z,49.16
2022-08-09T21:20:18.925Z,49.12
2022-08-09T21:24:28.587Z,48.82
2022-08-09T21:29:48.978Z,48.87
2022-08-09T21:34:54.998Z,49.13
2022-08-09T21:39:57.786Z,49.79
2022-08-09T21:45:01.299Z,50.29
2022-08-09T21:50:06.458Z,50.31
2022-08-09T21:55:10.252Z,50.38
2022-08-09T22:00:25.540Z,50.61
2022-08-09T22:05:36.021Z,50.83
2022-08-09T22:11:00.494Z,50.35
2022-08-09T22:16:03.913Z,50.81
2022-08-09T22:21:09.891Z,51.23
2022-08-09T22:26:35.323Z,51.25
2022-08-09T22:31:50.248Z,51.55
2022-08-09T22:37:01.552Z,51.38
2022-08-09T22:42:16.103Z,51.60
2022-08-09T22:48:10.774Z,51.72
2022-08-09T22:52:49.127Z,51.81
2022-08-09T22:57:59.571Z,52.05
2022-08-09T23:03:03.209Z,52.14
2022-08-09T23:08:34.954Z,52.40
2022-08-09T23:13:38.422Z,52.28
2022-08-09T23:18:42.096Z,52.66
2022-08-09T23:23:58.915Z,52.81
2022-08-09T23:29:13.495Z,52.80
2022-08-09T23:34:16.230Z,52.93
2022-08-09T23:39:20.483Z,52.96
2022-08-09T23:44:23.237Z,53.22
2022-08-09T23:49:26.831Z,53.25
2022-08-09T23:54:30.882Z,53.48
2022-08-09T23:59:47.566Z,53.48
